Time;durP1;ratioP1;P1;durP2;ratioP2;P2;SDS_P1;SDS_P2;PMS_P1;PMS_P2;Temp;Humidity;BMP_temperature;BMP_pressure;BME280_temperature;BME280_humidity;BME280_pressure;Samples;Min_cycle;Max_cycle;Signal;HPM_P1;HPM_P2
2023/02/07 00:06:35;;;;;;;10.50;5.05;;;;;;;0.49;100.00;102354.19;20894849;28;20049;-74
2023/02/07 00:16:37;;;;;;;11.65;5.15;;;;;;;0.47;100.00;102350.63;20895271;28;20049;-75
2023/02/07 00:26:38;;;;;;;11.45;5.40;;;;;;;0.51;100.00;102326.81;20890498;28;20053;-74
2023/02/07 00:36:39;;;;;;;12.18;5.57;;;;;;;0.45;100.00;102329.03;20892068;28;20060;-74
2023/02/07 00:46:41;;;;;;;11.55;5.72;;;;;;;0.36;100.00;102319.09;20892952;28;20405;-75
2023/02/07 00:56:42;;;;;;;12.43;5.40;;;;;;;0.38;100.00;102316.59;20890035;28;20064;-75
2023/02/07 01:06:43;;;;;;;11.93;5.72;;;;;;;0.23;100.00;102334.66;20890483;28;20068;-74
2023/02/07 01:16:44;;;;;;;11.32;5.95;;;;;;;0.23;100.00;102357.84;20889636;28;20049;-75
2023/02/07 01:26:46;;;;;;;12.70;5.80;;;;;;;0.22;100.00;102359.53;20889366;28;20060;-74
2023/02/07 01:36:47;;;;;;;12.45;6.32;;;;;;;0.16;100.00;102338.59;20888123;28;20053;-74
2023/02/07 01:46:48;;;;;;;13.00;6.28;;;;;;;0.07;100.00;102321.72;20887190;28;20410;-74
2023/02/07 01:56:49;;;;;;;14.75;6.88;;;;;;;-0.02;100.00;102340.09;20886219;28;20516;-74
2023/02/07 02:06:51;;;;;;;14.25;7.18;;;;;;;-0.12;100.00;102355.81;20886950;28;20064;-75
2023/02/07 02:16:52;;;;;;;16.27;7.95;;;;;;;-0.14;100.00;102354.84;20902492;28;20115;-75
2023/02/07 02:26:53;;;;;;;20.38;9.13;;;;;;;-0.27;100.00;102374.69;20903043;28;20049;-74
2023/02/07 02:36:55;;;;;;;20.38;9.55;;;;;;;-0.31;100.00;102370.16;20901126;28;20061;-74
2023/02/07 02:46:56;;;;;;;19.13;9.40;;;;;;;-0.44;100.00;102352.19;20902045;28;20524;-74
2023/02/07 02:56:57;;;;;;;20.38;10.60;;;;;;;-0.54;100.00;102371.31;20901409;28;20057;-75
2023/02/07 03:06:59;;;;;;;20.25;10.13;;;;;;;-0.64;100.00;102368.09;20903581;28;20059;-74
2023/02/07 03:17:00;;;;;;;25.73;10.23;;;;;;;-0.75;100.00;102364.00;20900628;28;20049;-75
2023/02/07 03:27:01;;;;;;;20.80;10.27;;;;;;;-0.80;100.00;102374.88;20898590;28;20056;-75
2023/02/07 03:37:02;;;;;;;24.80;11.40;;;;;;;-0.94;100.00;102378.28;20897590;28;20551;-74
2023/02/07 03:47:04;;;;;;;22.17;11.55;;;;;;;-0.93;100.00;102374.91;20897607;28;20057;-74
2023/02/07 03:57:05;;;;;;;22.98;11.88;;;;;;;-1.12;100.00;102398.56;20896256;28;20052;-74
2023/02/07 04:07:06;;;;;;;24.67;11.77;;;;;;;-1.25;100.00;102397.69;20893863;28;20428;-75
2023/02/07 04:17:07;;;;;;;28.95;12.73;;;;;;;-1.34;100.00;102393.75;20894699;28;20049;-75
2023/02/07 04:27:09;;;;;;;23.20;11.20;;;;;;;-1.45;100.00;102402.44;20892742;28;20485;-75
2023/02/07 04:37:10;;;;;;;28.48;12.75;;;;;;;-1.47;100.00;102383.47;20891786;28;20049;-75
2023/02/07 04:47:11;;;;;;;26.17;12.20;;;;;;;-1.55;100.00;102380.41;20891519;28;20049;-75
2023/02/07 04:57:13;;;;;;;29.90;13.75;;;;;;;-1.75;100.00;102380.78;20891018;28;20118;-75
2023/02/07 05:07:14;;;;;;;31.27;14.27;;;;;;;-1.75;100.00;102379.91;20889572;28;20045;-76
2023/02/07 05:17:15;;;;;;;29.02;13.85;;;;;;;-1.77;100.00;102387.50;20890063;28;20049;-76
2023/02/07 05:27:16;;;;;;;26.52;13.32;;;;;;;-1.82;100.00;102400.03;20888371;28;20044;-76
2023/02/07 05:37:18;;;;;;;29.20;14.65;;;;;;;-1.73;100.00;102402.28;20885537;28;20053;-77
2023/02/07 05:47:19;;;;;;;32.70;14.93;;;;;;;-1.86;100.00;102387.78;20886121;28;20056;-77
2023/02/07 05:57:20;;;;;;;26.73;14.05;;;;;;;-1.79;100.00;102406.16;20885315;28;20056;-77
2023/02/07 06:07:21;;;;;;;28.02;14.23;;;;;;;-1.90;100.00;102415.72;20888488;28;20522;-77
2023/02/07 06:17:23;;;;;;;31.23;15.18;;;;;;;-1.91;100.00;102407.13;20891794;28;20810;-77
2023/02/07 06:27:24;;;;;;;31.83;15.40;;;;;;;-2.01;100.00;102412.44;20888044;28;20056;-75
2023/02/07 06:37:26;;;;;;;30.42;15.55;;;;;;;-2.09;100.00;102414.47;20884263;28;20524;-76
2023/02/07 06:47:27;;;;;;;32.60;15.73;;;;;;;-2.22;100.00;102411.84;20884285;28;20052;-78
2023/02/07 06:57:28;;;;;;;33.67;15.85;;;;;;;-2.34;100.00;102421.28;20891617;28;20106;-78
2023/02/07 07:07:29;;;;;;;29.50;14.63;;;;;;;-2.32;100.00;102441.13;20900168;28;20045;-78
2023/02/07 07:17:31;;;;;;;28.58;14.38;;;;;;;-2.24;100.00;102443.34;20899642;28;20464;-77
2023/02/07 07:27:32;;;;;;;34.17;16.42;;;;;;;-2.14;100.00;102446.63;20916813;28;20152;-78
2023/02/07 07:37:34;;;;;;;31.33;14.93;;;;;;;-2.10;100.00;102443.50;20908882;28;20061;-78
2023/02/07 07:47:35;;;;;;;31.30;15.52;;;;;;;-2.02;100.00;102467.09;20902876;28;20052;-77
2023/02/07 07:57:37;;;;;;;38.28;17.25;;;;;;;-1.87;100.00;102463.03;20903483;28;20119;-77
2023/02/07 08:07:38;;;;;;;35.25;17.15;;;;;;;-1.77;100.00;102471.31;20900380;28;20147;-78
2023/02/07 08:17:39;;;;;;;29.45;14.63;;;;;;;-1.61;100.00;102474.16;20896124;28;20060;-81
2023/02/07 08:27:40;;;;;;;32.78;15.18;;;;;;;-1.48;100.00;102496.41;20894241;28;20049;-76
2023/02/07 08:37:42;;;;;;;28.40;13.85;;;;;;;-1.41;100.00;102506.28;20890334;28;20057;-74
2023/02/07 08:47:44;;;;;;;27.80;13.70;;;;;;;-1.12;100.00;102521.06;20888804;28;20163;-75
2023/02/07 08:57:45;;;;;;;24.15;12.60;;;;;;;-1.04;100.00;102531.06;20890604;28;20057;-74
2023/02/07 09:07:46;;;;;;;25.05;12.43;;;;;;;-1.01;100.00;102529.47;20885036;28;20684;-73
2023/02/07 09:17:48;;;;;;;21.08;11.20;;;;;;;-0.83;100.00;102530.66;20883598;28;20420;-74
2023/02/07 09:27:49;;;;;;;26.83;12.55;;;;;;;-0.55;100.00;102541.06;20874562;28;20441;-73
2023/02/07 09:37:50;;;;;;;29.23;12.30;;;;;;;-0.45;100.00;102532.22;20884705;28;20079;-73
2023/02/07 09:47:52;;;;;;;23.52;11.13;;;;;;;-0.22;100.00;102533.69;20886590;28;20049;-73
2023/02/07 09:57:53;;;;;;;21.23;11.25;;;;;;;-0.20;100.00;102532.06;20887976;28;20057;-73
2023/02/07 10:07:54;;;;;;;21.98;10.90;;;;;;;0.17;100.00;102540.38;20886455;28;20103;-73
2023/02/07 10:18:00;;;;;;;21.45;10.90;;;;;;;0.22;100.00;102526.97;20886546;28;20057;-74
2023/02/07 10:28:02;;;;;;;20.38;11.02;;;;;;;0.48;100.00;102527.66;20884988;28;20048;-73
2023/02/07 10:38:03;;;;;;;21.33;10.13;;;;;;;0.82;100.00;102527.06;20897759;28;20592;-74
2023/02/07 10:48:04;;;;;;;21.95;10.35;;;;;;;0.85;100.00;102529.81;20900384;28;20052;-74
2023/02/07 10:58:06;;;;;;;19.38;10.35;;;;;;;0.93;98.76;102528.56;20899882;28;20076;-74
2023/02/07 11:08:23;;;;;;;24.02;11.15;;;;;;;1.08;97.40;102521.69;20899446;28;20053;-74
2023/02/07 11:18:24;;;;;;;19.92;10.95;;;;;;;1.17;97.42;102493.84;20897252;28;20551;-74
2023/02/07 11:28:26;;;;;;;22.45;10.68;;;;;;;1.47;96.93;102499.81;20897895;28;20509;-74
2023/02/07 11:38:27;;;;;;;19.52;10.77;;;;;;;1.49;94.89;102494.75;20965863;23;20059;-71
2023/02/07 11:48:28;;;;;;;22.58;11.90;;;;;;;1.64;97.20;102486.94;20857123;28;20065;-70
2023/02/07 11:58:30;;;;;;;19.88;11.27;;;;;;;1.62;98.57;102484.25;20859110;28;20433;-70
2023/02/07 12:08:31;;;;;;;21.95;11.73;;;;;;;1.71;95.87;102474.41;20855431;28;20049;-70
2023/02/07 12:18:32;;;;;;;22.85;11.27;;;;;;;1.91;93.96;102487.50;20856180;28;20843;-70
2023/02/07 12:28:35;;;;;;;22.10;11.57;;;;;;;2.20;93.92;102464.06;20851965;28;20060;-71
2023/02/07 12:38:36;;;;;;;25.13;11.98;;;;;;;2.30;92.34;102452.53;20848441;28;20132;-70
2023/02/07 12:48:37;;;;;;;21.00;12.15;;;;;;;2.40;91.52;102457.34;20852594;28;20068;-70
2023/02/07 12:58:39;;;;;;;17.98;10.88;;;;;;;2.47;84.86;102443.03;20852710;28;20053;-70
2023/02/07 13:08:40;;;;;;;19.70;10.43;;;;;;;2.48;83.80;102431.88;20851153;28;20052;-70
2023/02/07 13:18:41;;;;;;;21.90;10.93;;;;;;;2.53;80.77;102430.41;20853081;28;20107;-71
2023/02/07 13:28:43;;;;;;;19.95;11.05;;;;;;;2.75;80.22;102428.06;20851627;28;20053;-71
2023/02/07 13:38:45;;;;;;;19.85;11.35;;;;;;;2.79;78.33;102422.22;20849299;28;20103;-71
2023/02/07 13:48:46;;;;;;;17.35;10.70;;;;;;;2.92;78.12;102425.38;20851041;28;20498;-70
2023/02/07 14:09:07;;;;;;;21.90;10.80;;;;;;;2.99;72.37;102422.28;20847033;28;20061;-70
2023/02/07 14:19:09;;;;;;;16.92;9.30;;;;;;;3.06;71.34;102420.03;20847591;28;20050;-70
2023/02/07 14:29:10;;;;;;;21.35;10.75;;;;;;;3.18;71.12;102408.53;20849217;28;20053;-70
2023/02/07 14:39:11;;;;;;;16.33;8.73;;;;;;;3.01;74.07;102405.13;20845840;28;20049;-69
2023/02/07 14:49:12;;;;;;;15.55;8.18;;;;;;;3.07;71.63;102408.03;20848434;28;20099;-70
2023/02/07 14:59:14;;;;;;;19.80;9.30;;;;;;;3.16;69.30;102416.19;20846605;28;20110;-69
2023/02/07 15:09:15;;;;;;;19.05;10.13;;;;;;;3.11;72.30;102412.50;20840282;28;20493;-69
2023/02/07 15:19:17;;;;;;;17.73;9.20;;;;;;;3.11;69.06;102417.69;20853090;28;20053;-69
2023/02/07 15:29:18;;;;;;;19.98;9.30;;;;;;;2.97;70.39;102410.97;20852825;28;20057;-69
2023/02/07 15:39:22;;;;;;;19.13;9.27;;;;;;;2.89;70.91;102422.66;20853534;28;20571;-69
2023/02/07 15:49:23;;;;;;;19.30;9.35;;;;;;;2.74;72.21;102426.28;20841050;28;20315;-69
2023/02/07 15:59:25;;;;;;;19.08;9.52;;;;;;;2.64;71.78;102423.19;20853669;28;20537;-68
2023/02/07 16:09:27;;;;;;;19.33;10.45;;;;;;;2.44;73.71;102427.34;20925432;28;20535;-69
2023/02/07 16:19:29;;;;;;;27.45;14.40;;;;;;;2.27;75.13;102442.91;20933612;28;20052;-69
2023/02/07 16:29:31;;;;;;;20.05;10.18;;;;;;;2.12;74.24;102446.41;20928304;28;20151;-69
2023/02/07 16:39:32;;;;;;;17.17;9.73;;;;;;;2.06;74.51;102459.91;20932345;28;20602;-69
2023/02/07 16:49:33;;;;;;;20.70;10.27;;;;;;;1.89;73.98;102456.44;20933113;28;20062;-69
2023/02/07 16:59:35;;;;;;;21.70;10.07;;;;;;;1.71;74.45;102453.75;20911383;28;20053;-69
2023/02/07 17:09:36;;;;;;;23.08;10.40;;;;;;;1.63;74.87;102455.06;20909341;28;20056;-70
2023/02/07 17:19:37;;;;;;;24.55;11.13;;;;;;;1.42;76.29;102459.06;20930262;28;20063;-71
2023/02/07 17:29:38;;;;;;;34.75;14.85;;;;;;;1.39;75.55;102458.88;20930550;28;20444;-71
2023/02/07 17:39:40;;;;;;;23.08;10.82;;;;;;;1.64;72.53;102462.00;20976142;22;20045;-88
2023/02/07 17:49:41;;;;;;;16.50;7.95;;;;;;;1.45;72.83;102454.06;20950469;28;20130;-86
2023/02/07 17:59:43;;;;;;;19.92;9.50;;;;;;;1.21;75.43;102466.53;20908434;28;20523;-86
2023/02/07 18:09:44;;;;;;;22.98;10.65;;;;;;;0.97;78.81;102468.63;20923108;28;20049;-86
2023/02/07 18:19:45;;;;;;;20.02;10.50;;;;;;;0.91;79.41;102478.56;20924902;28;20048;-86
2023/02/07 18:29:47;;;;;;;22.52;11.38;;;;;;;0.98;78.79;102483.28;20926736;28;20075;-86
2023/02/07 18:50:00;;;;;;;24.08;12.30;;;;;;;0.91;81.25;102501.78;21005666;28;20602;-72
2023/02/07 19:00:02;;;;;;;23.88;12.20;;;;;;;0.81;83.06;102491.75;21079856;22;20643;-72
2023/02/07 19:10:03;;;;;;;30.30;13.63;;;;;;;0.65;84.86;102493.44;20968214;28;20055;-71
2023/02/07 19:20:04;;;;;;;23.83;12.10;;;;;;;0.54;86.92;102481.63;20975830;28;20535;-71
2023/02/07 19:30:06;;;;;;;23.42;12.70;;;;;;;0.30;90.75;102480.19;20975394;28;20052;-71
2023/02/07 19:40:08;;;;;;;25.58;13.32;;;;;;;0.14;92.79;102488.66;20976422;28;20147;-71
2023/02/07 19:50:09;;;;;;;31.58;15.38;;;;;;;-0.04;95.85;102498.78;20968825;28;20065;-71
2023/02/07 20:00:10;;;;;;;32.20;15.32;;;;;;;-0.28;98.56;102511.91;20975896;28;20051;-72
2023/02/07 20:10:12;;;;;;;32.90;16.42;;;;;;;-0.41;99.39;102529.94;20972271;28;20045;-70
2023/02/07 20:20:13;;;;;;;28.02;14.07;;;;;;;-0.31;98.15;102529.72;20974026;28;20040;-71
2023/02/07 20:30:15;;;;;;;29.40;14.90;;;;;;;-0.41;99.08;102514.50;20973047;28;20522;-71
2023/02/07 20:40:16;;;;;;;28.42;14.30;;;;;;;-0.67;100.00;102517.09;20973272;28;20056;-70
2023/02/07 20:50:17;;;;;;;32.35;15.00;;;;;;;-0.73;100.00;102530.47;20971298;28;20481;-72
2023/02/07 21:00:19;;;;;;;28.70;15.20;;;;;;;-0.82;100.00;102532.44;20972019;28;20049;-72
2023/02/07 21:10:20;;;;;;;28.83;14.85;;;;;;;-0.96;100.00;102520.38;20971961;28;20048;-72
2023/02/07 21:20:21;;;;;;;40.15;17.10;;;;;;;-1.05;100.00;102520.69;20971448;28;20416;-73
2023/02/07 21:30:22;;;;;;;38.95;16.42;;;;;;;-1.28;100.00;102510.59;20969948;28;20052;-75
2023/02/07 21:40:24;;;;;;;29.80;15.43;;;;;;;-1.47;100.00;102506.78;20970633;28;20143;-75
2023/02/07 21:50:26;;;;;;;32.47;14.48;;;;;;;-1.37;100.00;102493.75;20969807;28;20057;-74
2023/02/07 22:00:27;;;;;;;31.95;15.50;;;;;;;-1.48;100.00;102499.88;20969051;28;20516;-73
2023/02/07 22:10:28;;;;;;;32.13;16.40;;;;;;;-1.61;100.00;102503.28;20963344;28;20065;-70
2023/02/07 22:20:29;;;;;;;37.72;16.90;;;;;;;-1.75;100.00;102488.63;20968417;28;20056;-73
2023/02/07 22:30:31;;;;;;;31.23;15.00;;;;;;;-1.62;100.00;102498.06;20976819;28;20068;-70
2023/02/07 22:40:32;;;;;;;28.20;13.18;;;;;;;-1.24;100.00;102494.59;20984981;28;20060;-70
2023/02/07 22:50:33;;;;;;;28.65;13.38;;;;;;;-1.14;100.00;102487.56;20976141;28;20456;-71
2023/02/07 23:00:35;;;;;;;25.63;12.52;;;;;;;-1.18;100.00;102485.56;20917778;28;20060;-71
2023/02/07 23:10:36;;;;;;;34.92;14.02;;;;;;;-1.21;100.00;102489.63;20903054;28;20061;-72
2023/02/07 23:20:38;;;;;;;31.65;13.93;;;;;;;-1.23;100.00;102470.66;20902250;28;20635;-71
2023/02/07 23:30:39;;;;;;;28.98;13.27;;;;;;;-1.32;100.00;102481.22;20900810;28;20049;-71
2023/02/07 23:40:41;;;;;;;31.05;13.65;;;;;;;-1.27;100.00;102482.41;20893294;28;20052;-71
2023/02/07 23:50:42;;;;;;;30.13;13.13;;;;;;;-1.27;100.00;102484.09;20887764;28;20057;-70
